sensor_id;sensor_type;location;lat;lon;timestamp;P1;durP1;ratioP1;P2;durP2;ratioP2
55031;SDS011;40928;51.076;7.950;2023-02-01T00:00:26;32.75;;;10.93;;
55031;SDS011;40928;51.076;7.950;2023-02-01T00:02:52;30.50;;;12.60;;
55031;SDS011;40928;51.076;7.950;2023-02-01T00:05:18;30.83;;;11.45;;
55031;SDS011;40928;51.076;7.950;2023-02-01T00:07:46;28.10;;;10.55;;
55031;SDS011;40928;51.076;7.950;2023-02-01T00:10:13;37.78;;;13.07;;
55031;SDS011;40928;51.076;7.950;2023-02-01T00:12:38;25.67;;;11.73;;
55031;SDS011;40928;51.076;7.950;2023-02-01T00:15:04;28.70;;;11.43;;
55031;SDS011;40928;51.076;7.950;2023-02-01T00:17:30;28.77;;;11.43;;
55031;SDS011;40928;51.076;7.950;2023-02-01T00:19:55;32.60;;;11.30;;
55031;SDS011;40928;51.076;7.950;2023-02-01T00:22:21;32.83;;;11.18;;
55031;SDS011;40928;51.076;7.950;2023-02-01T00:24:46;27.63;;;9.95;;
55031;SDS011;40928;51.076;7.950;2023-02-01T00:27:12;21.65;;;9.43;;
55031;SDS011;40928;51.076;7.950;2023-02-01T00:29:42;27.17;;;9.52;;
55031;SDS011;40928;51.076;7.950;2023-02-01T00:32:09;23.77;;;9.88;;
55031;SDS011;40928;51.076;7.950;2023-02-01T00:34:35;16.65;;;7.65;;
55031;SDS011;40928;51.076;7.950;2023-02-01T00:37:01;24.73;;;8.98;;
55031;SDS011;40928;51.076;7.950;2023-02-01T00:39:26;17.13;;;7.20;;
55031;SDS011;40928;51.076;7.950;2023-02-01T00:41:52;25.35;;;8.20;;
55031;SDS011;40928;51.076;7.950;2023-02-01T00:44:17;16.10;;;7.80;;
55031;SDS011;40928;51.076;7.950;2023-02-01T00:46:43;12.60;;;5.72;;
55031;SDS011;40928;51.076;7.950;2023-02-01T00:49:09;26.27;;;7.60;;
55031;SDS011;40928;51.076;7.950;2023-02-01T00:51:34;19.90;;;7.03;;
55031;SDS011;40928;51.076;7.950;2023-02-01T00:54:02;14.98;;;6.40;;
55031;SDS011;40928;51.076;7.950;2023-02-01T00:56:29;12.90;;;6.63;;
55031;SDS011;40928;51.076;7.950;2023-02-01T00:58:55;19.75;;;6.30;;
55031;SDS011;40928;51.076;7.950;2023-02-01T01:01:25;13.35;;;6.28;;
55031;SDS011;40928;51.076;7.950;2023-02-01T01:03:53;19.52;;;6.18;;
55031;SDS011;40928;51.076;7.950;2023-02-01T01:06:25;18.50;;;6.70;;
55031;SDS011;40928;51.076;7.950;2023-02-01T01:08:53;19.85;;;7.07;;
55031;SDS011;40928;51.076;7.950;2023-02-01T01:11:21;18.92;;;6.65;;
55031;SDS011;40928;51.076;7.950;2023-02-01T01:13:49;26.75;;;7.38;;
55031;SDS011;40928;51.076;7.950;2023-02-01T01:16:17;26.20;;;6.70;;
55031;SDS011;40928;51.076;7.950;2023-02-01T01:18:44;16.48;;;6.43;;
55031;SDS011;40928;51.076;7.950;2023-02-01T01:21:11;14.88;;;6.35;;
55031;SDS011;40928;51.076;7.950;2023-02-01T01:23:38;24.08;;;7.78;;
55031;SDS011;40928;51.076;7.950;2023-02-01T01:26:05;19.50;;;5.93;;
55031;SDS011;40928;51.076;7.950;2023-02-01T01:28:32;23.98;;;6.60;;
55031;SDS011;40928;51.076;7.950;2023-02-01T01:30:57;24.48;;;7.95;;
55031;SDS011;40928;51.076;7.950;2023-02-01T01:33:23;16.70;;;6.85;;
55031;SDS011;40928;51.076;7.950;2023-02-01T01:35:48;21.77;;;6.20;;
55031;SDS011;40928;51.076;7.950;2023-02-01T01:38:14;18.80;;;6.22;;
55031;SDS011;40928;51.076;7.950;2023-02-01T01:40:40;16.60;;;5.82;;
55031;SDS011;40928;51.076;7.950;2023-02-01T01:43:14;24.00;;;8.05;;
55031;SDS011;40928;51.076;7.950;2023-02-01T01:45:41;19.60;;;6.45;;
55031;SDS011;40928;51.076;7.950;2023-02-01T01:48:08;12.85;;;6.57;;
55031;SDS011;40928;51.076;7.950;2023-02-01T01:50:42;19.98;;;6.35;;
55031;SDS011;40928;51.076;7.950;2023-02-01T01:53:14;19.05;;;6.70;;
55031;SDS011;40928;51.076;7.950;2023-02-01T01:55:44;20.98;;;6.95;;
55031;SDS011;40928;51.076;7.950;2023-02-01T01:58:14;18.50;;;5.93;;
55031;SDS011;40928;51.076;7.950;2023-02-01T02:00:43;17.02;;;5.75;;
55031;SDS011;40928;51.076;7.950;2023-02-01T02:06:17;19.40;;;6.30;;
55031;SDS011;40928;51.076;7.950;2023-02-01T02:09:05;18.77;;;6.40;;
55031;SDS011;40928;51.076;7.950;2023-02-01T02:11:31;19.27;;;5.75;;
55031;SDS011;40928;51.076;7.950;2023-02-01T02:13:57;23.25;;;8.25;;
55031;SDS011;40928;51.076;7.950;2023-02-01T02:34:31;17.83;;;5.18;;
55031;SDS011;40928;51.076;7.950;2023-02-01T02:39:38;32.33;;;6.30;;
55031;SDS011;40928;51.076;7.950;2023-02-01T02:45:10;18.65;;;4.55;;
55031;SDS011;40928;51.076;7.950;2023-02-01T02:51:05;19.63;;;5.05;;
55031;SDS011;40928;51.076;7.950;2023-02-01T02:57:08;10.98;;;3.78;;
55031;SDS011;40928;51.076;7.950;2023-02-01T02:59:57;20.73;;;5.25;;
55031;SDS011;40928;51.076;7.950;2023-02-01T03:02:44;20.50;;;3.65;;
55031;SDS011;40928;51.076;7.950;2023-02-01T03:05:37;12.13;;;3.85;;
55031;SDS011;40928;51.076;7.950;2023-02-01T03:08:11;18.50;;;3.88;;
55031;SDS011;40928;51.076;7.950;2023-02-01T03:13:20;21.52;;;3.13;;
55031;SDS011;40928;51.076;7.950;2023-02-01T03:15:59;17.40;;;2.45;;
55031;SDS011;40928;51.076;7.950;2023-02-01T03:18:32;20.73;;;3.05;;
55031;SDS011;40928;51.076;7.950;2023-02-01T03:20:59;18.08;;;2.83;;
55031;SDS011;40928;51.076;7.950;2023-02-01T03:23:30;9.85;;;2.15;;
55031;SDS011;40928;51.076;7.950;2023-02-01T03:25:59;19.52;;;2.90;;
55031;SDS011;40928;51.076;7.950;2023-02-01T03:28:28;14.80;;;2.33;;
55031;SDS011;40928;51.076;7.950;2023-02-01T03:30:58;13.65;;;2.88;;
55031;SDS011;40928;51.076;7.950;2023-02-01T03:33:25;13.43;;;2.97;;
55031;SDS011;40928;51.076;7.950;2023-02-01T03:41:43;12.10;;;2.08;;
55031;SDS011;40928;51.076;7.950;2023-02-01T03:46:58;14.98;;;2.08;;
55031;SDS011;40928;51.076;7.950;2023-02-01T03:49:47;17.73;;;2.30;;
55031;SDS011;40928;51.076;7.950;2023-02-01T03:55:16;15.77;;;2.75;;
55031;SDS011;40928;51.076;7.950;2023-02-01T03:57:48;11.32;;;2.60;;
55031;SDS011;40928;51.076;7.950;2023-02-01T04:00:19;22.15;;;3.78;;
55031;SDS011;40928;51.076;7.950;2023-02-01T04:02:49;12.90;;;2.20;;
55031;SDS011;40928;51.076;7.950;2023-02-01T04:05:16;15.05;;;2.22;;
55031;SDS011;40928;51.076;7.950;2023-02-01T04:07:50;13.85;;;2.75;;
55031;SDS011;40928;51.076;7.950;2023-02-01T04:10:16;12.48;;;2.08;;
55031;SDS011;40928;51.076;7.950;2023-02-01T04:12:42;14.80;;;1.90;;
55031;SDS011;40928;51.076;7.950;2023-02-01T04:15:07;17.00;;;2.15;;
55031;SDS011;40928;51.076;7.950;2023-02-01T04:17:33;9.07;;;2.33;;
55031;SDS011;40928;51.076;7.950;2023-02-01T04:20:00;19.52;;;3.08;;
55031;SDS011;40928;51.076;7.950;2023-02-01T04:22:26;9.98;;;2.17;;
55031;SDS011;40928;51.076;7.950;2023-02-01T04:24:53;17.77;;;2.75;;
55031;SDS011;40928;51.076;7.950;2023-02-01T04:27:19;16.48;;;2.60;;
55031;SDS011;40928;51.076;7.950;2023-02-01T04:29:44;23.73;;;2.92;;
55031;SDS011;40928;51.076;7.950;2023-02-01T04:32:15;18.45;;;2.83;;
55031;SDS011;40928;51.076;7.950;2023-02-01T04:34:41;15.57;;;2.40;;
55031;SDS011;40928;51.076;7.950;2023-02-01T04:37:07;12.02;;;2.80;;
55031;SDS011;40928;51.076;7.950;2023-02-01T04:39:32;15.27;;;3.45;;
55031;SDS011;40928;51.076;7.950;2023-02-01T04:41:58;24.52;;;2.70;;
55031;SDS011;40928;51.076;7.950;2023-02-01T04:44:23;11.82;;;3.97;;
55031;SDS011;40928;51.076;7.950;2023-02-01T04:46:49;12.88;;;3.05;;
55031;SDS011;40928;51.076;7.950;2023-02-01T04:49:15;18.95;;;3.70;;
55031;SDS011;40928;51.076;7.950;2023-02-01T04:51:41;19.42;;;3.13;;
55031;SDS011;40928;51.076;7.950;2023-02-01T04:54:07;13.13;;;3.65;;
55031;SDS011;40928;51.076;7.950;2023-02-01T04:56:33;19.83;;;3.28;;
55031;SDS011;40928;51.076;7.950;2023-02-01T04:59:00;21.50;;;2.83;;
55031;SDS011;40928;51.076;7.950;2023-02-01T05:01:27;14.25;;;2.25;;
55031;SDS011;40928;51.076;7.950;2023-02-01T05:03:53;18.90;;;3.08;;
55031;SDS011;40928;51.076;7.950;2023-02-01T05:06:19;15.50;;;2.55;;
55031;SDS011;40928;51.076;7.950;2023-02-01T05:08:45;14.63;;;2.42;;
55031;SDS011;40928;51.076;7.950;2023-02-01T05:11:11;18.40;;;3.63;;
55031;SDS011;40928;51.076;7.950;2023-02-01T05:13:58;10.18;;;1.98;;
55031;SDS011;40928;51.076;7.950;2023-02-01T05:16:30;17.20;;;3.47;;
55031;SDS011;40928;51.076;7.950;2023-02-01T05:18:55;19.40;;;4.03;;
55031;SDS011;40928;51.076;7.950;2023-02-01T05:21:24;17.27;;;3.75;;
55031;SDS011;40928;51.076;7.950;2023-02-01T05:23:50;16.60;;;3.08;;
55031;SDS011;40928;51.076;7.950;2023-02-01T05:26:35;19.70;;;3.35;;
55031;SDS011;40928;51.076;7.950;2023-02-01T05:29:03;16.23;;;3.42;;
55031;SDS011;40928;51.076;7.950;2023-02-01T05:31:30;7.90;;;2.40;;
55031;SDS011;40928;51.076;7.950;2023-02-01T05:33:56;9.40;;;3.00;;
55031;SDS011;40928;51.076;7.950;2023-02-01T05:36:21;18.48;;;4.18;;
55031;SDS011;40928;51.076;7.950;2023-02-01T05:38:47;17.90;;;3.85;;
55031;SDS011;40928;51.076;7.950;2023-02-01T05:41:12;11.60;;;3.10;;
55031;SDS011;40928;51.076;7.950;2023-02-01T05:43:38;17.40;;;3.28;;
55031;SDS011;40928;51.076;7.950;2023-02-01T05:46:03;17.90;;;3.75;;
55031;SDS011;40928;51.076;7.950;2023-02-01T05:48:29;11.85;;;3.38;;
55031;SDS011;40928;51.076;7.950;2023-02-01T05:50:55;13.02;;;3.97;;
55031;SDS011;40928;51.076;7.950;2023-02-01T05:53:20;23.30;;;5.20;;
55031;SDS011;40928;51.076;7.950;2023-02-01T05:55:46;10.35;;;4.38;;
55031;SDS011;40928;51.076;7.950;2023-02-01T05:58:12;15.70;;;3.92;;
55031;SDS011;40928;51.076;7.950;2023-02-01T06:00:38;18.75;;;4.40;;
55031;SDS011;40928;51.076;7.950;2023-02-01T06:03:04;17.25;;;4.97;;
55031;SDS011;40928;51.076;7.950;2023-02-01T06:05:30;21.70;;;4.43;;
55031;SDS011;40928;51.076;7.950;2023-02-01T06:07:55;15.85;;;4.20;;
55031;SDS011;40928;51.076;7.950;2023-02-01T06:10:21;17.48;;;4.45;;
55031;SDS011;40928;51.076;7.950;2023-02-01T06:12:46;27.35;;;4.13;;
55031;SDS011;40928;51.076;7.950;2023-02-01T06:15:12;19.98;;;4.03;;
55031;SDS011;40928;51.076;7.950;2023-02-01T06:17:40;12.75;;;3.60;;
55031;SDS011;40928;51.076;7.950;2023-02-01T06:20:07;14.38;;;4.07;;
55031;SDS011;40928;51.076;7.950;2023-02-01T06:22:33;20.92;;;4.18;;
55031;SDS011;40928;51.076;7.950;2023-02-01T06:25:01;16.83;;;4.05;;
55031;SDS011;40928;51.076;7.950;2023-02-01T06:27:30;20.25;;;3.75;;
55031;SDS011;40928;51.076;7.950;2023-02-01T06:29:56;15.55;;;3.88;;
55031;SDS011;40928;51.076;7.950;2023-02-01T06:32:22;14.45;;;4.05;;
55031;SDS011;40928;51.076;7.950;2023-02-01T06:34:48;12.35;;;3.65;;
55031;SDS011;40928;51.076;7.950;2023-02-01T06:42:15;10.30;;;3.45;;
55031;SDS011;40928;51.076;7.950;2023-02-01T06:44:40;19.42;;;4.03;;
55031;SDS011;40928;51.076;7.950;2023-02-01T06:47:06;13.82;;;3.20;;
55031;SDS011;40928;51.076;7.950;2023-02-01T06:49:31;13.82;;;4.18;;
55031;SDS011;40928;51.076;7.950;2023-02-01T06:51:57;17.27;;;4.30;;
55031;SDS011;40928;51.076;7.950;2023-02-01T06:54:25;20.17;;;4.72;;
55031;SDS011;40928;51.076;7.950;2023-02-01T06:56:51;20.10;;;5.03;;
55031;SDS011;40928;51.076;7.950;2023-02-01T06:59:17;19.65;;;4.43;;
55031;SDS011;40928;51.076;7.950;2023-02-01T07:01:43;20.70;;;4.78;;
55031;SDS011;40928;51.076;7.950;2023-02-01T07:04:09;22.05;;;4.22;;
55031;SDS011;40928;51.076;7.950;2023-02-01T07:06:37;26.60;;;4.90;;
55031;SDS011;40928;51.076;7.950;2023-02-01T07:09:03;12.52;;;3.97;;
55031;SDS011;40928;51.076;7.950;2023-02-01T07:11:28;25.80;;;5.60;;
55031;SDS011;40928;51.076;7.950;2023-02-01T07:13:55;17.83;;;4.55;;
55031;SDS011;40928;51.076;7.950;2023-02-01T07:16:21;15.20;;;4.28;;
55031;SDS011;40928;51.076;7.950;2023-02-01T07:18:49;26.88;;;4.95;;
55031;SDS011;40928;51.076;7.950;2023-02-01T07:21:16;17.67;;;4.22;;
55031;SDS011;40928;51.076;7.950;2023-02-01T07:23:41;27.02;;;4.85;;
55031;SDS011;40928;51.076;7.950;2023-02-01T07:26:09;13.95;;;4.55;;
55031;SDS011;40928;51.076;7.950;2023-02-01T07:28:37;13.23;;;4.13;;
55031;SDS011;40928;51.076;7.950;2023-02-01T07:31:06;22.15;;;5.20;;
55031;SDS011;40928;51.076;7.950;2023-02-01T07:33:34;15.25;;;4.75;;
55031;SDS011;40928;51.076;7.950;2023-02-01T07:36:03;16.08;;;3.78;;
55031;SDS011;40928;51.076;7.950;2023-02-01T07:38:31;18.10;;;4.18;;
55031;SDS011;40928;51.076;7.950;2023-02-01T07:40:57;17.48;;;3.78;;
55031;SDS011;40928;51.076;7.950;2023-02-01T07:43:24;20.17;;;4.82;;
55031;SDS011;40928;51.076;7.950;2023-02-01T07:45:52;17.77;;;4.07;;
55031;SDS011;40928;51.076;7.950;2023-02-01T07:48:19;11.63;;;3.42;;
55031;SDS011;40928;51.076;7.950;2023-02-01T07:50:45;21.65;;;4.32;;
55031;SDS011;40928;51.076;7.950;2023-02-01T07:53:11;10.80;;;3.85;;
55031;SDS011;40928;51.076;7.950;2023-02-01T07:55:37;17.80;;;3.92;;
55031;SDS011;40928;51.076;7.950;2023-02-01T07:58:03;14.52;;;4.80;;
55031;SDS011;40928;51.076;7.950;2023-02-01T08:00:28;18.52;;;4.38;;
55031;SDS011;40928;51.076;7.950;2023-02-01T08:03:13;28.77;;;5.25;;
55031;SDS011;40928;51.076;7.950;2023-02-01T08:05:38;15.55;;;4.70;;
55031;SDS011;40928;51.076;7.950;2023-02-01T08:08:04;18.27;;;4.68;;
55031;SDS011;40928;51.076;7.950;2023-02-01T08:10:30;14.70;;;4.63;;
55031;SDS011;40928;51.076;7.950;2023-02-01T08:12:59;14.25;;;4.72;;
55031;SDS011;40928;51.076;7.950;2023-02-01T08:15:25;14.90;;;4.10;;
55031;SDS011;40928;51.076;7.950;2023-02-01T08:17:52;26.35;;;4.50;;
55031;SDS011;40928;51.076;7.950;2023-02-01T08:20:19;19.52;;;4.55;;
55031;SDS011;40928;51.076;7.950;2023-02-01T08:22:48;32.90;;;4.75;;
55031;SDS011;40928;51.076;7.950;2023-02-01T08:25:15;17.70;;;4.82;;
55031;SDS011;40928;51.076;7.950;2023-02-01T08:27:41;14.77;;;4.38;;
55031;SDS011;40928;51.076;7.950;2023-02-01T08:30:07;12.52;;;4.07;;
55031;SDS011;40928;51.076;7.950;2023-02-01T08:32:34;10.60;;;3.80;;
55031;SDS011;40928;51.076;7.950;2023-02-01T08:34:59;14.65;;;3.95;;
55031;SDS011;40928;51.076;7.950;2023-02-01T08:37:25;23.48;;;4.00;;
55031;SDS011;40928;51.076;7.950;2023-02-01T08:39:50;23.02;;;3.85;;
55031;SDS011;40928;51.076;7.950;2023-02-01T08:42:16;20.52;;;3.78;;
55031;SDS011;40928;51.076;7.950;2023-02-01T08:45:02;15.40;;;4.50;;
55031;SDS011;40928;51.076;7.950;2023-02-01T08:47:29;27.55;;;4.13;;
55031;SDS011;40928;51.076;7.950;2023-02-01T08:49:55;21.08;;;4.47;;
55031;SDS011;40928;51.076;7.950;2023-02-01T08:52:20;15.48;;;3.72;;
55031;SDS011;40928;51.076;7.950;2023-02-01T08:54:46;16.27;;;4.18;;
55031;SDS011;40928;51.076;7.950;2023-02-01T08:57:11;19.05;;;4.40;;
55031;SDS011;40928;51.076;7.950;2023-02-01T08:59:37;19.05;;;4.18;;
55031;SDS011;40928;51.076;7.950;2023-02-01T09:02:02;17.25;;;3.67;;
55031;SDS011;40928;51.076;7.950;2023-02-01T09:04:28;18.52;;;4.82;;
55031;SDS011;40928;51.076;7.950;2023-02-01T09:06:57;19.27;;;4.47;;
55031;SDS011;40928;51.076;7.950;2023-02-01T09:09:22;15.40;;;3.78;;
55031;SDS011;40928;51.076;7.950;2023-02-01T09:11:48;13.27;;;3.50;;
55031;SDS011;40928;51.076;7.950;2023-02-01T09:14:16;21.55;;;4.40;;
55031;SDS011;40928;51.076;7.950;2023-02-01T09:16:41;23.27;;;4.25;;
55031;SDS011;40928;51.076;7.950;2023-02-01T09:19:07;21.52;;;4.53;;
55031;SDS011;40928;51.076;7.950;2023-02-01T09:21:33;23.10;;;4.60;;
55031;SDS011;40928;51.076;7.950;2023-02-01T09:23:58;16.52;;;4.53;;
55031;SDS011;40928;51.076;7.950;2023-02-01T09:26:24;20.67;;;4.35;;
55031;SDS011;40928;51.076;7.950;2023-02-01T09:28:50;17.58;;;3.45;;
55031;SDS011;40928;51.076;7.950;2023-02-01T09:31:16;17.77;;;4.22;;
55031;SDS011;40928;51.076;7.950;2023-02-01T09:33:42;19.70;;;4.10;;
55031;SDS011;40928;51.076;7.950;2023-02-01T09:36:09;23.40;;;4.63;;
55031;SDS011;40928;51.076;7.950;2023-02-01T09:44:37;10.98;;;4.00;;
55031;SDS011;40928;51.076;7.950;2023-02-01T09:47:15;16.80;;;3.22;;
55031;SDS011;40928;51.076;7.950;2023-02-01T09:50:17;10.80;;;4.05;;
55031;SDS011;40928;51.076;7.950;2023-02-01T09:52:51;25.45;;;4.28;;
55031;SDS011;40928;51.076;7.950;2023-02-01T09:55:32;21.40;;;4.28;;
55031;SDS011;40928;51.076;7.950;2023-02-01T09:58:09;18.98;;;5.38;;
55031;SDS011;40928;51.076;7.950;2023-02-01T10:00:37;25.45;;;4.57;;
55031;SDS011;40928;51.076;7.950;2023-02-01T10:03:05;20.08;;;4.55;;
55031;SDS011;40928;51.076;7.950;2023-02-01T10:10:51;20.42;;;4.25;;
55031;SDS011;40928;51.076;7.950;2023-02-01T10:13:33;21.35;;;4.45;;
55031;SDS011;40928;51.076;7.950;2023-02-01T10:23:56;17.15;;;4.32;;
55031;SDS011;40928;51.076;7.950;2023-02-01T10:26:24;15.65;;;4.53;;
55031;SDS011;40928;51.076;7.950;2023-02-01T10:28:53;19.23;;;4.80;;
55031;SDS011;40928;51.076;7.950;2023-02-01T10:31:22;20.20;;;4.28;;
55031;SDS011;40928;51.076;7.950;2023-02-01T10:33:52;8.40;;;4.05;;
55031;SDS011;40928;51.076;7.950;2023-02-01T10:36:29;25.40;;;5.22;;
55031;SDS011;40928;51.076;7.950;2023-02-01T10:39:00;23.00;;;5.70;;
55031;SDS011;40928;51.076;7.950;2023-02-01T10:41:36;17.85;;;5.05;;
55031;SDS011;40928;51.076;7.950;2023-02-01T10:44:05;16.48;;;4.30;;
55031;SDS011;40928;51.076;7.950;2023-02-01T10:46:36;23.83;;;5.22;;
55031;SDS011;40928;51.076;7.950;2023-02-01T10:49:02;19.77;;;4.32;;
55031;SDS011;40928;51.076;7.950;2023-02-01T10:54:19;17.25;;;4.32;;
55031;SDS011;40928;51.076;7.950;2023-02-01T10:56:47;16.25;;;4.40;;
55031;SDS011;40928;51.076;7.950;2023-02-01T10:59:15;15.80;;;5.32;;
55031;SDS011;40928;51.076;7.950;2023-02-01T11:01:43;13.77;;;3.75;;
55031;SDS011;40928;51.076;7.950;2023-02-01T11:04:14;20.90;;;4.32;;
55031;SDS011;40928;51.076;7.950;2023-02-01T11:06:45;15.90;;;4.70;;
55031;SDS011;40928;51.076;7.950;2023-02-01T11:14:16;13.70;;;4.33;;
55031;SDS011;40928;51.076;7.950;2023-02-01T11:19:38;16.30;;;4.05;;
55031;SDS011;40928;51.076;7.950;2023-02-01T11:22:03;26.27;;;3.95;;
55031;SDS011;40928;51.076;7.950;2023-02-01T11:24:34;17.42;;;4.45;;
55031;SDS011;40928;51.076;7.950;2023-02-01T11:27:04;13.45;;;3.65;;
55031;SDS011;40928;51.076;7.950;2023-02-01T11:29:38;23.92;;;4.45;;
55031;SDS011;40928;51.076;7.950;2023-02-01T11:32:06;13.07;;;4.32;;
55031;SDS011;40928;51.076;7.950;2023-02-01T11:37:05;13.15;;;4.30;;
55031;SDS011;40928;51.076;7.950;2023-02-01T11:39:44;17.70;;;4.68;;
55031;SDS011;40928;51.076;7.950;2023-02-01T11:42:38;15.43;;;3.78;;
55031;SDS011;40928;51.076;7.950;2023-02-01T11:45:33;22.52;;;4.03;;
55031;SDS011;40928;51.076;7.950;2023-02-01T11:48:02;19.38;;;4.93;;
55031;SDS011;40928;51.076;7.950;2023-02-01T11:50:35;13.68;;;3.20;;
55031;SDS011;40928;51.076;7.950;2023-02-01T12:15:27;13.70;;;3.03;;
55031;SDS011;40928;51.076;7.950;2023-02-01T12:23:45;25.30;;;3.55;;
55031;SDS011;40928;51.076;7.950;2023-02-01T12:26:35;10.02;;;2.72;;
55031;SDS011;40928;51.076;7.950;2023-02-01T12:32:12;12.85;;;2.95;;
55031;SDS011;40928;51.076;7.950;2023-02-01T12:35:02;16.83;;;2.75;;
55031;SDS011;40928;51.076;7.950;2023-02-01T12:37:46;11.00;;;2.53;;
55031;SDS011;40928;51.076;7.950;2023-02-01T12:45:58;11.82;;;2.78;;
55031;SDS011;40928;51.076;7.950;2023-02-01T12:49:03;9.85;;;3.00;;
55031;SDS011;40928;51.076;7.950;2023-02-01T12:51:42;13.13;;;3.90;;
55031;SDS011;40928;51.076;7.950;2023-02-01T12:57:05;13.25;;;3.85;;
55031;SDS011;40928;51.076;7.950;2023-02-01T13:02:42;8.80;;;4.03;;
55031;SDS011;40928;51.076;7.950;2023-02-01T13:05:17;14.10;;;3.42;;
55031;SDS011;40928;51.076;7.950;2023-02-01T13:07:46;19.42;;;3.65;;
55031;SDS011;40928;51.076;7.950;2023-02-01T13:15:29;13.98;;;3.97;;
55031;SDS011;40928;51.076;7.950;2023-02-01T13:18:02;13.25;;;4.30;;
55031;SDS011;40928;51.076;7.950;2023-02-01T13:20:40;12.70;;;4.68;;
55031;SDS011;40928;51.076;7.950;2023-02-01T13:23:29;12.13;;;4.05;;
55031;SDS011;40928;51.076;7.950;2023-02-01T13:25:57;22.85;;;5.13;;
55031;SDS011;40928;51.076;7.950;2023-02-01T13:42:31;16.30;;;4.93;;
55031;SDS011;40928;51.076;7.950;2023-02-01T13:45:01;17.33;;;4.68;;
55031;SDS011;40928;51.076;7.950;2023-02-01T13:47:50;12.38;;;4.50;;
55031;SDS011;40928;51.076;7.950;2023-02-01T13:50:21;17.38;;;3.85;;
55031;SDS011;40928;51.076;7.950;2023-02-01T13:52:51;10.52;;;4.30;;
55031;SDS011;40928;51.076;7.950;2023-02-01T13:57:52;20.05;;;4.28;;
55031;SDS011;40928;51.076;7.950;2023-02-01T14:00:35;18.88;;;4.50;;
55031;SDS011;40928;51.076;7.950;2023-02-01T14:23:47;22.90;;;5.50;;
55031;SDS011;40928;51.076;7.950;2023-02-01T14:26:24;12.65;;;5.03;;
55031;SDS011;40928;51.076;7.950;2023-02-01T14:31:43;11.43;;;4.25;;
55031;SDS011;40928;51.076;7.950;2023-02-01T14:37:31;24.88;;;6.32;;
55031;SDS011;40928;51.076;7.950;2023-02-01T14:40:04;18.08;;;5.22;;
55031;SDS011;40928;51.076;7.950;2023-02-01T14:47:45;14.35;;;5.05;;
55031;SDS011;40928;51.076;7.950;2023-02-01T14:55:50;13.38;;;5.28;;
55031;SDS011;40928;51.076;7.950;2023-02-01T15:04:10;15.90;;;5.30;;
55031;SDS011;40928;51.076;7.950;2023-02-01T15:06:58;16.55;;;3.95;;
55031;SDS011;40928;51.076;7.950;2023-02-01T15:14:40;11.23;;;4.55;;
55031;SDS011;40928;51.076;7.950;2023-02-01T15:17:48;15.80;;;4.50;;
55031;SDS011;40928;51.076;7.950;2023-02-01T15:20:25;17.90;;;4.75;;
55031;SDS011;40928;51.076;7.950;2023-02-01T15:28:09;15.68;;;4.05;;
55031;SDS011;40928;51.076;7.950;2023-02-01T15:30:40;14.18;;;3.35;;
55031;SDS011;40928;51.076;7.950;2023-02-01T15:33:22;14.00;;;3.63;;
55031;SDS011;40928;51.076;7.950;2023-02-01T15:35:49;10.20;;;3.58;;
55031;SDS011;40928;51.076;7.950;2023-02-01T15:38:39;13.80;;;3.50;;
55031;SDS011;40928;51.076;7.950;2023-02-01T15:41:16;15.23;;;3.38;;
55031;SDS011;40928;51.076;7.950;2023-02-01T15:43:45;16.10;;;3.90;;
55031;SDS011;40928;51.076;7.950;2023-02-01T15:46:14;18.15;;;3.95;;
55031;SDS011;40928;51.076;7.950;2023-02-01T15:48:48;21.25;;;3.45;;
55031;SDS011;40928;51.076;7.950;2023-02-01T15:51:20;19.33;;;4.55;;
55031;SDS011;40928;51.076;7.950;2023-02-01T15:53:51;14.57;;;3.75;;
55031;SDS011;40928;51.076;7.950;2023-02-01T15:56:21;18.00;;;4.32;;
55031;SDS011;40928;51.076;7.950;2023-02-01T15:58:50;19.17;;;3.75;;
55031;SDS011;40928;51.076;7.950;2023-02-01T16:01:18;10.98;;;3.05;;
55031;SDS011;40928;51.076;7.950;2023-02-01T16:03:45;14.45;;;3.33;;
55031;SDS011;40928;51.076;7.950;2023-02-01T16:08:52;8.80;;;2.83;;
55031;SDS011;40928;51.076;7.950;2023-02-01T16:13:58;13.10;;;2.72;;
55031;SDS011;40928;51.076;7.950;2023-02-01T16:16:27;19.65;;;2.88;;
55031;SDS011;40928;51.076;7.950;2023-02-01T16:18:53;14.07;;;3.08;;
55031;SDS011;40928;51.076;7.950;2023-02-01T16:21:19;16.92;;;2.85;;
55031;SDS011;40928;51.076;7.950;2023-02-01T16:23:49;14.25;;;2.95;;
55031;SDS011;40928;51.076;7.950;2023-02-01T16:26:18;9.40;;;2.30;;
55031;SDS011;40928;51.076;7.950;2023-02-01T16:28:45;7.35;;;2.65;;
55031;SDS011;40928;51.076;7.950;2023-02-01T16:31:12;13.02;;;3.53;;
55031;SDS011;40928;51.076;7.950;2023-02-01T16:33:45;12.60;;;2.72;;
55031;SDS011;40928;51.076;7.950;2023-02-01T16:36:17;11.85;;;3.20;;
55031;SDS011;40928;51.076;7.950;2023-02-01T16:38:43;14.52;;;3.38;;
55031;SDS011;40928;51.076;7.950;2023-02-01T16:41:12;13.15;;;3.00;;
55031;SDS011;40928;51.076;7.950;2023-02-01T16:43:39;11.27;;;3.30;;
55031;SDS011;40928;51.076;7.950;2023-02-01T16:46:05;17.67;;;3.90;;
55031;SDS011;40928;51.076;7.950;2023-02-01T16:48:35;19.63;;;3.15;;
55031;SDS011;40928;51.076;7.950;2023-02-01T16:51:03;16.90;;;3.60;;
55031;SDS011;40928;51.076;7.950;2023-02-01T16:53:33;18.90;;;4.22;;
55031;SDS011;40928;51.076;7.950;2023-02-01T16:55:59;15.05;;;3.30;;
55031;SDS011;40928;51.076;7.950;2023-02-01T16:58:26;22.13;;;4.20;;
55031;SDS011;40928;51.076;7.950;2023-02-01T17:00:52;10.27;;;3.30;;
55031;SDS011;40928;51.076;7.950;2023-02-01T17:03:19;12.07;;;3.45;;
55031;SDS011;40928;51.076;7.950;2023-02-01T17:05:52;15.80;;;3.08;;
55031;SDS011;40928;51.076;7.950;2023-02-01T17:11:06;16.83;;;2.72;;
55031;SDS011;40928;51.076;7.950;2023-02-01T17:13:34;12.73;;;3.45;;
55031;SDS011;40928;51.076;7.950;2023-02-01T17:16:04;17.17;;;3.97;;
55031;SDS011;40928;51.076;7.950;2023-02-01T17:18:58;16.95;;;4.28;;
55031;SDS011;40928;51.076;7.950;2023-02-01T17:21:28;9.65;;;2.97;;
55031;SDS011;40928;51.076;7.950;2023-02-01T17:24:00;9.95;;;3.25;;
55031;SDS011;40928;51.076;7.950;2023-02-01T17:26:26;13.48;;;3.35;;
55031;SDS011;40928;51.076;7.950;2023-02-01T17:28:52;21.73;;;3.30;;
55031;SDS011;40928;51.076;7.950;2023-02-01T17:31:20;12.40;;;4.05;;
55031;SDS011;40928;51.076;7.950;2023-02-01T17:33:46;18.98;;;3.53;;
55031;SDS011;40928;51.076;7.950;2023-02-01T17:36:12;15.80;;;3.90;;
55031;SDS011;40928;51.076;7.950;2023-02-01T17:38:40;19.42;;;3.72;;
55031;SDS011;40928;51.076;7.950;2023-02-01T17:41:09;12.80;;;3.55;;
55031;SDS011;40928;51.076;7.950;2023-02-01T17:43:38;10.20;;;3.17;;
55031;SDS011;40928;51.076;7.950;2023-02-01T17:48:37;8.80;;;2.95;;
55031;SDS011;40928;51.076;7.950;2023-02-01T17:51:03;15.13;;;3.83;;
55031;SDS011;40928;51.076;7.950;2023-02-01T17:53:29;12.02;;;4.40;;
55031;SDS011;40928;51.076;7.950;2023-02-01T17:55:55;27.05;;;3.60;;
55031;SDS011;40928;51.076;7.950;2023-02-01T17:58:24;13.52;;;3.67;;
55031;SDS011;40928;51.076;7.950;2023-02-01T18:00:50;11.52;;;4.40;;
55031;SDS011;40928;51.076;7.950;2023-02-01T18:03:21;23.83;;;3.72;;
55031;SDS011;40928;51.076;7.950;2023-02-01T18:05:48;16.75;;;3.40;;
55031;SDS011;40928;51.076;7.950;2023-02-01T18:08:16;17.80;;;3.50;;
55031;SDS011;40928;51.076;7.950;2023-02-01T18:10:42;17.40;;;4.13;;
55031;SDS011;40928;51.076;7.950;2023-02-01T18:13:09;9.13;;;3.40;;
55031;SDS011;40928;51.076;7.950;2023-02-01T18:15:36;15.30;;;3.00;;
55031;SDS011;40928;51.076;7.950;2023-02-01T18:18:04;18.13;;;3.75;;
55031;SDS011;40928;51.076;7.950;2023-02-01T18:20:30;15.73;;;3.72;;
55031;SDS011;40928;51.076;7.950;2023-02-01T18:22:55;15.13;;;3.35;;